Accueil
METAR-TAF:

METAR-TAF

Aéroports :

Beauvais, France

Aéroport de Beauvais-Tillé

latitude: 49-28N, longitude: 002-07E, altitude: 109 m

Observation

Le bulletin a été fait il y a 24 minutes, à 01:30 UTC
Vent 2 kt de nord/nord-ouest
Température 15°C
Humidité 88%
Pression 1019 hPa
Visibilité: 8000 m
Nuages épars à une hauteur de 3500 ft
Ciel couvert à une hauteur de 6600 ft

METAR: LFOB 260130Z AUTO 33002KT 8000 SCT035 OVC066 15/13 Q1019 NOSIG

Heure: 03:54 (01:54 UTC)

Prévision

Le bulletin a été fait il y a 2 heures et 54 minutes, à 23:00 UTC
Prévision valable du 26 à 00 UTC au 26 à 24 UTC
Vent 2 kt de direction variable
Visibilité 10 km ou plus
Nuages épars à une hauteur de 4000 ft
Probabilité 30% :
Temporairement
du 26 à 10 UTC au 26 à 17 UTC
Visibilité: 4000 m
Nuages fragmentés à une hauteur de 3000 ft, Cumulus congestus.
averses de pluie

TAF: LFOB 252300Z 2600/2624 VRB02KT 9999 SCT040 PROB30 TEMPO 2610/2617 4000 SHRA BKN030TCU

Observations et prévisions météorologiques de plus de 4000 aéroports (messages METAR et TAF).

Les stations disponibles sont représentées par des disques jaunes et rouges sur la carte.

Passer la souris dessus pour voir le nom de la station.

Cliquer dessus pour voir les observations et prévisions météorologiques.

Pour changer de carte: cliquez sur les boutons verts avec une croix noire pour zoomer, sur le bouton vert avec un tiret pour effectuer un zoom arrière, ou sur les flèches vertes pour les cartes adjacentes.


METAR-TAF: